sensor_id;sensor_type;location;lat;lon;timestamp;P1;durP1;ratioP1;P2;durP2;ratioP2
61702;SDS011;47622;47.726;3.298;2023-09-07T00:01:50;4.28;;;2.65;;
61702;SDS011;47622;47.726;3.298;2023-09-07T00:04:18;5.22;;;2.35;;
61702;SDS011;47622;47.726;3.298;2023-09-07T00:06:44;4.80;;;2.42;;
61702;SDS011;47622;47.726;3.298;2023-09-07T00:09:10;4.47;;;2.15;;
61702;SDS011;47622;47.726;3.298;2023-09-07T00:11:41;4.68;;;2.65;;
61702;SDS011;47622;47.726;3.298;2023-09-07T00:14:06;3.20;;;2.40;;
61702;SDS011;47622;47.726;3.298;2023-09-07T00:16:33;4.32;;;2.53;;
61702;SDS011;47622;47.726;3.298;2023-09-07T00:19:00;2.97;;;2.53;;
61702;SDS011;47622;47.726;3.298;2023-09-07T00:21:29;5.38;;;2.60;;
61702;SDS011;47622;47.726;3.298;2023-09-07T00:23:55;4.95;;;2.50;;
61702;SDS011;47622;47.726;3.298;2023-09-07T00:26:21;3.90;;;2.60;;
61702;SDS011;47622;47.726;3.298;2023-09-07T00:28:46;6.28;;;2.38;;
61702;SDS011;47622;47.726;3.298;2023-09-07T00:31:12;3.50;;;2.50;;
61702;SDS011;47622;47.726;3.298;2023-09-07T00:33:38;4.25;;;2.42;;
61702;SDS011;47622;47.726;3.298;2023-09-07T00:36:03;3.22;;;2.30;;
61702;SDS011;47622;47.726;3.298;2023-09-07T00:38:29;5.38;;;2.45;;
61702;SDS011;47622;47.726;3.298;2023-09-07T00:40:55;4.65;;;2.53;;
61702;SDS011;47622;47.726;3.298;2023-09-07T00:43:20;3.42;;;2.67;;
61702;SDS011;47622;47.726;3.298;2023-09-07T00:45:46;3.95;;;2.50;;
61702;SDS011;47622;47.726;3.298;2023-09-07T00:48:12;4.05;;;2.40;;
61702;SDS011;47622;47.726;3.298;2023-09-07T00:50:40;6.13;;;2.42;;
61702;SDS011;47622;47.726;3.298;2023-09-07T00:53:06;4.35;;;2.55;;
61702;SDS011;47622;47.726;3.298;2023-09-07T00:55:33;4.45;;;2.78;;
61702;SDS011;47622;47.726;3.298;2023-09-07T00:58:03;6.47;;;2.42;;
61702;SDS011;47622;47.726;3.298;2023-09-07T01:00:31;3.10;;;2.35;;
61702;SDS011;47622;47.726;3.298;2023-09-07T01:02:58;4.22;;;2.53;;
61702;SDS011;47622;47.726;3.298;2023-09-07T01:05:39;5.95;;;2.70;;
61702;SDS011;47622;47.726;3.298;2023-09-07T01:08:17;3.63;;;2.50;;
61702;SDS011;47622;47.726;3.298;2023-09-07T01:10:56;2.90;;;2.45;;
61702;SDS011;47622;47.726;3.298;2023-09-07T01:13:22;6.07;;;2.83;;
61702;SDS011;47622;47.726;3.298;2023-09-07T01:15:48;4.93;;;2.58;;
61702;SDS011;47622;47.726;3.298;2023-09-07T01:18:13;4.93;;;2.58;;
61702;SDS011;47622;47.726;3.298;2023-09-07T01:20:40;2.70;;;2.28;;
61702;SDS011;47622;47.726;3.298;2023-09-07T01:23:07;2.35;;;2.10;;
61702;SDS011;47622;47.726;3.298;2023-09-07T01:25:33;5.78;;;2.80;;
61702;SDS011;47622;47.726;3.298;2023-09-07T01:28:00;6.65;;;2.50;;
61702;SDS011;47622;47.726;3.298;2023-09-07T01:30:29;3.70;;;2.47;;
61702;SDS011;47622;47.726;3.298;2023-09-07T01:32:54;3.72;;;2.63;;
61702;SDS011;47622;47.726;3.298;2023-09-07T01:35:20;4.05;;;2.50;;
61702;SDS011;47622;47.726;3.298;2023-09-07T01:37:47;3.85;;;2.38;;
61702;SDS011;47622;47.726;3.298;2023-09-07T01:40:13;2.53;;;2.30;;
61702;SDS011;47622;47.726;3.298;2023-09-07T01:42:40;3.20;;;2.50;;
61702;SDS011;47622;47.726;3.298;2023-09-07T01:45:06;2.20;;;2.00;;
61702;SDS011;47622;47.726;3.298;2023-09-07T01:47:32;2.97;;;2.40;;
61702;SDS011;47622;47.726;3.298;2023-09-07T01:49:57;2.50;;;2.03;;
61702;SDS011;47622;47.726;3.298;2023-09-07T01:52:23;3.80;;;2.40;;
61702;SDS011;47622;47.726;3.298;2023-09-07T01:54:48;3.85;;;2.42;;
61702;SDS011;47622;47.726;3.298;2023-09-07T01:57:14;4.47;;;2.60;;
61702;SDS011;47622;47.726;3.298;2023-09-07T01:59:41;5.00;;;2.25;;
61702;SDS011;47622;47.726;3.298;2023-09-07T02:02:06;4.10;;;2.72;;
61702;SDS011;47622;47.726;3.298;2023-09-07T02:04:32;3.45;;;2.45;;
61702;SDS011;47622;47.726;3.298;2023-09-07T02:06:58;5.60;;;2.75;;
61702;SDS011;47622;47.726;3.298;2023-09-07T02:09:23;3.58;;;2.20;;
61702;SDS011;47622;47.726;3.298;2023-09-07T02:11:49;3.55;;;2.25;;
61702;SDS011;47622;47.726;3.298;2023-09-07T02:14:15;4.68;;;2.30;;
61702;SDS011;47622;47.726;3.298;2023-09-07T02:16:41;4.15;;;2.60;;
61702;SDS011;47622;47.726;3.298;2023-09-07T02:19:07;2.83;;;2.30;;
61702;SDS011;47622;47.726;3.298;2023-09-07T02:21:32;4.25;;;2.65;;
61702;SDS011;47622;47.726;3.298;2023-09-07T02:23:58;4.78;;;2.40;;
61702;SDS011;47622;47.726;3.298;2023-09-07T02:26:24;3.05;;;2.45;;
61702;SDS011;47622;47.726;3.298;2023-09-07T02:28:51;2.97;;;2.30;;
61702;SDS011;47622;47.726;3.298;2023-09-07T02:31:17;3.42;;;2.53;;
61702;SDS011;47622;47.726;3.298;2023-09-07T02:33:43;3.97;;;2.60;;
61702;SDS011;47622;47.726;3.298;2023-09-07T02:36:09;5.68;;;2.45;;
61702;SDS011;47622;47.726;3.298;2023-09-07T02:38:34;2.88;;;2.25;;
61702;SDS011;47622;47.726;3.298;2023-09-07T02:41:00;5.18;;;2.50;;
61702;SDS011;47622;47.726;3.298;2023-09-07T02:43:27;2.75;;;2.55;;
61702;SDS011;47622;47.726;3.298;2023-09-07T02:45:53;4.28;;;2.60;;
61702;SDS011;47622;47.726;3.298;2023-09-07T02:48:18;3.92;;;2.50;;
61702;SDS011;47622;47.726;3.298;2023-09-07T02:50:44;5.38;;;2.70;;
61702;SDS011;47622;47.726;3.298;2023-09-07T02:53:13;4.03;;;2.80;;
61702;SDS011;47622;47.726;3.298;2023-09-07T02:55:41;3.10;;;2.70;;
61702;SDS011;47622;47.726;3.298;2023-09-07T02:58:06;4.13;;;2.60;;
61702;SDS011;47622;47.726;3.298;2023-09-07T03:00:34;4.72;;;2.50;;
61702;SDS011;47622;47.726;3.298;2023-09-07T03:03:00;3.00;;;2.55;;
61702;SDS011;47622;47.726;3.298;2023-09-07T03:05:28;4.55;;;2.50;;
61702;SDS011;47622;47.726;3.298;2023-09-07T03:07:54;5.13;;;2.45;;
61702;SDS011;47622;47.726;3.298;2023-09-07T03:10:21;5.15;;;2.80;;
61702;SDS011;47622;47.726;3.298;2023-09-07T03:12:46;2.72;;;2.40;;
61702;SDS011;47622;47.726;3.298;2023-09-07T03:15:15;3.70;;;2.50;;
61702;SDS011;47622;47.726;3.298;2023-09-07T03:17:41;3.08;;;2.42;;
61702;SDS011;47622;47.726;3.298;2023-09-07T03:20:06;4.47;;;2.60;;
61702;SDS011;47622;47.726;3.298;2023-09-07T03:22:40;3.78;;;2.22;;
61702;SDS011;47622;47.726;3.298;2023-09-07T03:25:08;2.97;;;2.28;;
61702;SDS011;47622;47.726;3.298;2023-09-07T03:27:37;2.33;;;2.13;;
61702;SDS011;47622;47.726;3.298;2023-09-07T03:30:03;2.63;;;2.40;;
61702;SDS011;47622;47.726;3.298;2023-09-07T03:32:31;5.47;;;2.50;;
61702;SDS011;47622;47.726;3.298;2023-09-07T03:34:58;5.93;;;2.28;;
61702;SDS011;47622;47.726;3.298;2023-09-07T03:37:26;4.10;;;2.40;;
61702;SDS011;47622;47.726;3.298;2023-09-07T03:39:53;6.88;;;2.63;;
61702;SDS011;47622;47.726;3.298;2023-09-07T03:42:19;6.03;;;2.40;;
61702;SDS011;47622;47.726;3.298;2023-09-07T03:44:44;5.25;;;2.53;;
61702;SDS011;47622;47.726;3.298;2023-09-07T03:47:10;3.80;;;2.67;;
61702;SDS011;47622;47.726;3.298;2023-09-07T03:49:36;3.38;;;2.60;;
61702;SDS011;47622;47.726;3.298;2023-09-07T03:52:01;2.83;;;2.25;;
61702;SDS011;47622;47.726;3.298;2023-09-07T03:54:27;2.28;;;2.08;;
61702;SDS011;47622;47.726;3.298;2023-09-07T03:56:53;5.22;;;2.47;;
61702;SDS011;47622;47.726;3.298;2023-09-07T03:59:18;4.63;;;2.53;;
61702;SDS011;47622;47.726;3.298;2023-09-07T04:01:45;2.97;;;2.35;;
61702;SDS011;47622;47.726;3.298;2023-09-07T04:04:12;3.90;;;2.28;;
61702;SDS011;47622;47.726;3.298;2023-09-07T04:06:37;5.55;;;2.90;;
61702;SDS011;47622;47.726;3.298;2023-09-07T04:09:03;4.53;;;2.83;;
61702;SDS011;47622;47.726;3.298;2023-09-07T04:11:30;4.65;;;2.92;;
61702;SDS011;47622;47.726;3.298;2023-09-07T04:13:56;6.68;;;2.90;;
61702;SDS011;47622;47.726;3.298;2023-09-07T04:16:22;4.20;;;2.60;;
61702;SDS011;47622;47.726;3.298;2023-09-07T04:18:48;7.30;;;2.53;;
61702;SDS011;47622;47.726;3.298;2023-09-07T04:21:15;6.40;;;2.55;;
61702;SDS011;47622;47.726;3.298;2023-09-07T04:23:40;3.67;;;2.58;;
61702;SDS011;47622;47.726;3.298;2023-09-07T04:26:10;2.75;;;2.40;;
61702;SDS011;47622;47.726;3.298;2023-09-07T04:28:37;2.92;;;2.53;;
61702;SDS011;47622;47.726;3.298;2023-09-07T04:31:04;4.22;;;2.67;;
61702;SDS011;47622;47.726;3.298;2023-09-07T04:33:31;4.32;;;2.60;;
61702;SDS011;47622;47.726;3.298;2023-09-07T04:36:09;10.40;;;3.25;;
61702;SDS011;47622;47.726;3.298;2023-09-07T04:38:38;5.82;;;3.10;;
61702;SDS011;47622;47.726;3.298;2023-09-07T04:41:08;4.68;;;2.65;;
61702;SDS011;47622;47.726;3.298;2023-09-07T04:43:35;4.43;;;2.70;;
61702;SDS011;47622;47.726;3.298;2023-09-07T04:46:01;3.63;;;2.65;;
61702;SDS011;47622;47.726;3.298;2023-09-07T04:48:28;3.60;;;2.25;;
61702;SDS011;47622;47.726;3.298;2023-09-07T04:51:03;4.93;;;2.60;;
61702;SDS011;47622;47.726;3.298;2023-09-07T04:53:31;4.53;;;2.60;;
61702;SDS011;47622;47.726;3.298;2023-09-07T04:56:00;4.68;;;2.75;;
61702;SDS011;47622;47.726;3.298;2023-09-07T04:58:26;2.85;;;2.22;;
61702;SDS011;47622;47.726;3.298;2023-09-07T05:00:52;5.55;;;2.70;;
61702;SDS011;47622;47.726;3.298;2023-09-07T05:03:17;5.07;;;2.53;;
61702;SDS011;47622;47.726;3.298;2023-09-07T05:05:43;3.60;;;2.38;;
61702;SDS011;47622;47.726;3.298;2023-09-07T05:08:09;3.83;;;2.40;;
61702;SDS011;47622;47.726;3.298;2023-09-07T05:10:35;2.67;;;2.42;;
61702;SDS011;47622;47.726;3.298;2023-09-07T05:13:03;4.13;;;2.55;;
61702;SDS011;47622;47.726;3.298;2023-09-07T05:15:28;4.95;;;2.53;;
61702;SDS011;47622;47.726;3.298;2023-09-07T05:17:54;2.63;;;2.33;;
61702;SDS011;47622;47.726;3.298;2023-09-07T05:20:20;3.50;;;2.95;;
61702;SDS011;47622;47.726;3.298;2023-09-07T05:22:47;10.20;;;2.83;;
61702;SDS011;47622;47.726;3.298;2023-09-07T05:25:13;3.05;;;2.30;;
61702;SDS011;47622;47.726;3.298;2023-09-07T05:27:39;8.32;;;2.72;;
61702;SDS011;47622;47.726;3.298;2023-09-07T05:30:06;6.68;;;3.50;;
61702;SDS011;47622;47.726;3.298;2023-09-07T05:32:32;7.32;;;3.65;;
61702;SDS011;47622;47.726;3.298;2023-09-07T05:34:58;5.93;;;2.97;;
61702;SDS011;47622;47.726;3.298;2023-09-07T05:37:23;4.00;;;2.58;;
61702;SDS011;47622;47.726;3.298;2023-09-07T05:39:49;3.67;;;3.00;;
61702;SDS011;47622;47.726;3.298;2023-09-07T05:42:15;3.25;;;2.75;;
61702;SDS011;47622;47.726;3.298;2023-09-07T05:44:41;3.90;;;2.75;;
61702;SDS011;47622;47.726;3.298;2023-09-07T05:47:06;3.83;;;2.60;;
61702;SDS011;47622;47.726;3.298;2023-09-07T05:49:32;5.03;;;2.58;;
61702;SDS011;47622;47.726;3.298;2023-09-07T05:51:58;5.05;;;2.50;;
61702;SDS011;47622;47.726;3.298;2023-09-07T05:54:23;6.30;;;2.88;;
61702;SDS011;47622;47.726;3.298;2023-09-07T05:56:49;5.50;;;2.83;;
61702;SDS011;47622;47.726;3.298;2023-09-07T05:59:14;3.97;;;2.78;;
61702;SDS011;47622;47.726;3.298;2023-09-07T06:01:40;4.45;;;2.83;;
61702;SDS011;47622;47.726;3.298;2023-09-07T06:04:06;7.18;;;2.90;;
61702;SDS011;47622;47.726;3.298;2023-09-07T06:06:32;6.03;;;3.03;;
61702;SDS011;47622;47.726;3.298;2023-09-07T06:08:58;4.55;;;3.00;;
61702;SDS011;47622;47.726;3.298;2023-09-07T06:11:24;6.03;;;3.20;;
61702;SDS011;47622;47.726;3.298;2023-09-07T06:13:50;4.28;;;3.22;;
61702;SDS011;47622;47.726;3.298;2023-09-07T06:16:16;5.70;;;3.17;;
61702;SDS011;47622;47.726;3.298;2023-09-07T06:18:43;8.38;;;3.70;;
61702;SDS011;47622;47.726;3.298;2023-09-07T06:21:09;9.93;;;5.35;;
61702;SDS011;47622;47.726;3.298;2023-09-07T06:23:35;7.55;;;4.43;;
61702;SDS011;47622;47.726;3.298;2023-09-07T06:26:00;13.05;;;5.82;;
61702;SDS011;47622;47.726;3.298;2023-09-07T06:28:28;12.68;;;5.88;;
61702;SDS011;47622;47.726;3.298;2023-09-07T06:30:53;12.50;;;6.55;;
61702;SDS011;47622;47.726;3.298;2023-09-07T06:33:20;8.57;;;4.78;;
61702;SDS011;47622;47.726;3.298;2023-09-07T06:35:45;11.15;;;4.85;;
61702;SDS011;47622;47.726;3.298;2023-09-07T06:38:11;12.13;;;7.05;;
61702;SDS011;47622;47.726;3.298;2023-09-07T06:40:37;12.43;;;6.05;;
61702;SDS011;47622;47.726;3.298;2023-09-07T06:43:02;6.00;;;3.80;;
61702;SDS011;47622;47.726;3.298;2023-09-07T06:45:33;8.02;;;5.70;;
61702;SDS011;47622;47.726;3.298;2023-09-07T06:48:01;14.80;;;8.98;;
61702;SDS011;47622;47.726;3.298;2023-09-07T06:50:27;10.93;;;6.25;;
61702;SDS011;47622;47.726;3.298;2023-09-07T06:52:53;8.75;;;5.72;;
61702;SDS011;47622;47.726;3.298;2023-09-07T06:55:18;6.65;;;5.00;;
61702;SDS011;47622;47.726;3.298;2023-09-07T06:57:45;8.25;;;4.90;;
61702;SDS011;47622;47.726;3.298;2023-09-07T07:00:12;8.73;;;4.45;;
61702;SDS011;47622;47.726;3.298;2023-09-07T07:02:38;5.30;;;3.63;;
61702;SDS011;47622;47.726;3.298;2023-09-07T07:05:04;6.68;;;3.42;;
61702;SDS011;47622;47.726;3.298;2023-09-07T07:07:30;5.75;;;3.33;;
61702;SDS011;47622;47.726;3.298;2023-09-07T07:09:56;4.93;;;3.83;;
61702;SDS011;47622;47.726;3.298;2023-09-07T07:12:21;5.53;;;3.60;;
61702;SDS011;47622;47.726;3.298;2023-09-07T07:14:47;8.82;;;3.58;;
61702;SDS011;47622;47.726;3.298;2023-09-07T07:17:12;6.90;;;3.60;;
61702;SDS011;47622;47.726;3.298;2023-09-07T07:19:38;10.20;;;4.07;;
61702;SDS011;47622;47.726;3.298;2023-09-07T07:22:03;5.75;;;3.55;;
61702;SDS011;47622;47.726;3.298;2023-09-07T07:24:29;9.02;;;3.78;;
61702;SDS011;47622;47.726;3.298;2023-09-07T07:26:55;9.98;;;3.83;;
61702;SDS011;47622;47.726;3.298;2023-09-07T07:29:20;5.28;;;3.38;;
61702;SDS011;47622;47.726;3.298;2023-09-07T07:31:46;5.18;;;3.67;;
61702;SDS011;47622;47.726;3.298;2023-09-07T07:34:12;5.38;;;3.65;;
61702;SDS011;47622;47.726;3.298;2023-09-07T07:36:38;8.18;;;3.58;;
61702;SDS011;47622;47.726;3.298;2023-09-07T07:39:04;3.55;;;3.25;;
61702;SDS011;47622;47.726;3.298;2023-09-07T07:41:32;8.10;;;3.63;;
61702;SDS011;47622;47.726;3.298;2023-09-07T07:43:57;3.75;;;3.33;;
61702;SDS011;47622;47.726;3.298;2023-09-07T07:46:23;5.70;;;3.22;;
61702;SDS011;47622;47.726;3.298;2023-09-07T07:48:49;4.53;;;3.25;;
61702;SDS011;47622;47.726;3.298;2023-09-07T07:51:15;5.28;;;3.65;;
61702;SDS011;47622;47.726;3.298;2023-09-07T07:53:42;7.00;;;3.63;;
61702;SDS011;47622;47.726;3.298;2023-09-07T07:56:14;8.63;;;3.13;;
61702;SDS011;47622;47.726;3.298;2023-09-07T07:58:42;6.78;;;3.22;;
61702;SDS011;47622;47.726;3.298;2023-09-07T08:01:17;4.22;;;3.10;;
61702;SDS011;47622;47.726;3.298;2023-09-07T08:03:44;3.70;;;2.53;;
61702;SDS011;47622;47.726;3.298;2023-09-07T08:06:10;5.22;;;2.70;;
61702;SDS011;47622;47.726;3.298;2023-09-07T08:08:36;4.45;;;2.53;;
61702;SDS011;47622;47.726;3.298;2023-09-07T08:11:02;7.50;;;2.70;;
61702;SDS011;47622;47.726;3.298;2023-09-07T08:13:34;3.60;;;2.75;;
61702;SDS011;47622;47.726;3.298;2023-09-07T08:16:03;4.40;;;2.72;;
61702;SDS011;47622;47.726;3.298;2023-09-07T08:18:31;3.13;;;2.45;;
61702;SDS011;47622;47.726;3.298;2023-09-07T08:20:59;8.82;;;2.78;;
61702;SDS011;47622;47.726;3.298;2023-09-07T08:23:25;4.10;;;2.50;;
61702;SDS011;47622;47.726;3.298;2023-09-07T08:25:51;4.40;;;2.53;;
61702;SDS011;47622;47.726;3.298;2023-09-07T08:28:17;5.15;;;2.50;;
61702;SDS011;47622;47.726;3.298;2023-09-07T08:30:43;5.95;;;2.83;;
61702;SDS011;47622;47.726;3.298;2023-09-07T08:33:13;4.97;;;2.30;;
61702;SDS011;47622;47.726;3.298;2023-09-07T08:35:39;2.13;;;1.95;;
61702;SDS011;47622;47.726;3.298;2023-09-07T09:10:10;3.57;;;2.13;;
61702;SDS011;47622;47.726;3.298;2023-09-07T09:12:35;5.00;;;2.00;;
61702;SDS011;47622;47.726;3.298;2023-09-07T09:15:11;4.53;;;1.88;;
61702;SDS011;47622;47.726;3.298;2023-09-07T09:17:36;3.63;;;1.87;;
61702;SDS011;47622;47.726;3.298;2023-09-07T09:20:02;2.97;;;1.90;;
61702;SDS011;47622;47.726;3.298;2023-09-07T09:22:30;4.78;;;1.70;;
61702;SDS011;47622;47.726;3.298;2023-09-07T09:24:56;5.20;;;1.67;;
61702;SDS011;47622;47.726;3.298;2023-09-07T09:27:21;4.40;;;1.98;;
61702;SDS011;47622;47.726;3.298;2023-09-07T09:29:49;3.40;;;1.75;;
61702;SDS011;47622;47.726;3.298;2023-09-07T09:32:15;6.40;;;1.90;;
61702;SDS011;47622;47.726;3.298;2023-09-07T09:34:43;5.13;;;1.67;;
61702;SDS011;47622;47.726;3.298;2023-09-07T09:37:12;5.38;;;1.63;;
61702;SDS011;47622;47.726;3.298;2023-09-07T09:39:41;5.43;;;1.90;;
61702;SDS011;47622;47.726;3.298;2023-09-07T09:42:07;3.35;;;1.83;;
61702;SDS011;47622;47.726;3.298;2023-09-07T09:44:34;4.78;;;2.00;;
61702;SDS011;47622;47.726;3.298;2023-09-07T09:47:01;6.72;;;1.65;;
61702;SDS011;47622;47.726;3.298;2023-09-07T09:49:28;4.57;;;1.60;;
61702;SDS011;47622;47.726;3.298;2023-09-07T09:51:55;1.98;;;1.63;;
61702;SDS011;47622;47.726;3.298;2023-09-07T09:54:23;4.40;;;1.75;;
61702;SDS011;47622;47.726;3.298;2023-09-07T09:56:51;4.03;;;1.55;;
61702;SDS011;47622;47.726;3.298;2023-09-07T09:59:17;3.42;;;1.90;;
61702;SDS011;47622;47.726;3.298;2023-09-07T10:01:44;4.28;;;1.60;;
61702;SDS011;47622;47.726;3.298;2023-09-07T10:04:15;2.65;;;1.73;;
61702;SDS011;47622;47.726;3.298;2023-09-07T10:06:55;2.85;;;2.00;;
61702;SDS011;47622;47.726;3.298;2023-09-07T10:09:28;2.85;;;1.70;;
61702;SDS011;47622;47.726;3.298;2023-09-07T10:11:57;7.68;;;1.90;;
61702;SDS011;47622;47.726;3.298;2023-09-07T10:14:24;4.57;;;1.75;;
61702;SDS011;47622;47.726;3.298;2023-09-07T10:16:51;4.15;;;1.80;;
61702;SDS011;47622;47.726;3.298;2023-09-07T10:19:19;2.90;;;1.77;;
61702;SDS011;47622;47.726;3.298;2023-09-07T10:21:50;2.58;;;1.58;;
61702;SDS011;47622;47.726;3.298;2023-09-07T10:24:27;3.83;;;1.75;;
61702;SDS011;47622;47.726;3.298;2023-09-07T10:27:07;5.30;;;1.63;;
61702;SDS011;47622;47.726;3.298;2023-09-07T10:29:42;3.97;;;1.60;;
61702;SDS011;47622;47.726;3.298;2023-09-07T10:32:12;2.38;;;1.70;;
61702;SDS011;47622;47.726;3.298;2023-09-07T10:34:40;2.58;;;1.80;;
61702;SDS011;47622;47.726;3.298;2023-09-07T10:37:09;2.47;;;1.75;;
61702;SDS011;47622;47.726;3.298;2023-09-07T10:39:37;3.17;;;1.88;;
61702;SDS011;47622;47.726;3.298;2023-09-07T10:42:04;5.57;;;1.95;;
61702;SDS011;47622;47.726;3.298;2023-09-07T10:44:30;4.68;;;1.48;;
61702;SDS011;47622;47.726;3.298;2023-09-07T10:49:24;3.88;;;1.67;;
61702;SDS011;47622;47.726;3.298;2023-09-07T10:51:50;3.08;;;1.83;;
61702;SDS011;47622;47.726;3.298;2023-09-07T10:54:23;4.47;;;2.00;;
61702;SDS011;47622;47.726;3.298;2023-09-07T10:56:50;4.20;;;1.85;;
61702;SDS011;47622;47.726;3.298;2023-09-07T10:59:16;3.67;;;1.92;;
61702;SDS011;47622;47.726;3.298;2023-09-07T11:01:45;4.15;;;1.73;;
61702;SDS011;47622;47.726;3.298;2023-09-07T11:04:13;2.60;;;1.83;;
61702;SDS011;47622;47.726;3.298;2023-09-07T11:06:39;3.63;;;1.90;;
61702;SDS011;47622;47.726;3.298;2023-09-07T11:09:06;3.13;;;2.20;;
61702;SDS011;47622;47.726;3.298;2023-09-07T11:11:35;3.70;;;2.08;;
61702;SDS011;47622;47.726;3.298;2023-09-07T11:14:05;3.97;;;1.98;;
61702;SDS011;47622;47.726;3.298;2023-09-07T11:16:32;4.90;;;1.85;;
61702;SDS011;47622;47.726;3.298;2023-09-07T11:19:02;3.92;;;1.77;;
61702;SDS011;47622;47.726;3.298;2023-09-07T11:21:29;4.03;;;1.92;;
61702;SDS011;47622;47.726;3.298;2023-09-07T11:23:57;4.13;;;2.00;;
61702;SDS011;47622;47.726;3.298;2023-09-07T11:26:22;4.57;;;2.20;;
61702;SDS011;47622;47.726;3.298;2023-09-07T11:28:48;3.58;;;1.85;;
61702;SDS011;47622;47.726;3.298;2023-09-07T11:31:17;3.67;;;2.05;;
61702;SDS011;47622;47.726;3.298;2023-09-07T11:33:44;4.10;;;2.10;;
61702;SDS011;47622;47.726;3.298;2023-09-07T11:36:12;3.40;;;1.88;;
61702;SDS011;47622;47.726;3.298;2023-09-07T11:38:37;5.03;;;2.05;;
61702;SDS011;47622;47.726;3.298;2023-09-07T11:41:03;4.25;;;2.22;;
61702;SDS011;47622;47.726;3.298;2023-09-07T11:43:29;7.00;;;2.13;;
61702;SDS011;47622;47.726;3.298;2023-09-07T11:45:55;4.47;;;2.00;;
61702;SDS011;47622;47.726;3.298;2023-09-07T11:48:22;9.32;;;2.90;;
61702;SDS011;47622;47.726;3.298;2023-09-07T11:50:47;3.35;;;1.90;;
61702;SDS011;47622;47.726;3.298;2023-09-07T11:53:13;4.32;;;2.25;;
61702;SDS011;47622;47.726;3.298;2023-09-07T11:55:38;2.67;;;2.08;;
61702;SDS011;47622;47.726;3.298;2023-09-07T11:58:06;4.15;;;2.33;;
61702;SDS011;47622;47.726;3.298;2023-09-07T12:00:31;4.28;;;2.17;;
61702;SDS011;47622;47.726;3.298;2023-09-07T12:02:57;4.40;;;2.20;;
61702;SDS011;47622;47.726;3.298;2023-09-07T12:05:23;2.50;;;1.67;;
61702;SDS011;47622;47.726;3.298;2023-09-07T12:07:49;2.78;;;2.10;;
61702;SDS011;47622;47.726;3.298;2023-09-07T12:10:15;4.85;;;2.08;;
61702;SDS011;47622;47.726;3.298;2023-09-07T12:12:56;8.13;;;2.53;;
61702;SDS011;47622;47.726;3.298;2023-09-07T12:15:23;6.18;;;2.58;;
61702;SDS011;47622;47.726;3.298;2023-09-07T12:17:48;5.80;;;2.60;;
61702;SDS011;47622;47.726;3.298;2023-09-07T12:20:19;5.47;;;2.45;;
61702;SDS011;47622;47.726;3.298;2023-09-07T12:22:45;3.55;;;2.00;;
61702;SDS011;47622;47.726;3.298;2023-09-07T12:25:10;5.75;;;2.38;;
61702;SDS011;47622;47.726;3.298;2023-09-07T12:27:36;6.07;;;2.67;;
61702;SDS011;47622;47.726;3.298;2023-09-07T12:30:02;7.47;;;2.45;;
61702;SDS011;47622;47.726;3.298;2023-09-07T12:32:31;3.95;;;2.10;;
61702;SDS011;47622;47.726;3.298;2023-09-07T12:34:57;5.55;;;2.30;;
61702;SDS011;47622;47.726;3.298;2023-09-07T12:37:23;7.55;;;2.35;;
61702;SDS011;47622;47.726;3.298;2023-09-07T12:39:49;4.45;;;2.00;;
61702;SDS011;47622;47.726;3.298;2023-09-07T12:42:16;7.60;;;2.40;;
61702;SDS011;47622;47.726;3.298;2023-09-07T12:44:43;4.60;;;3.05;;
61702;SDS011;47622;47.726;3.298;2023-09-07T12:47:09;6.90;;;2.70;;
61702;SDS011;47622;47.726;3.298;2023-09-07T12:49:34;6.15;;;2.67;;
61702;SDS011;47622;47.726;3.298;2023-09-07T12:52:00;6.32;;;2.90;;
61702;SDS011;47622;47.726;3.298;2023-09-07T12:54:25;5.43;;;2.58;;
61702;SDS011;47622;47.726;3.298;2023-09-07T12:56:51;4.97;;;2.42;;
61702;SDS011;47622;47.726;3.298;2023-09-07T12:59:17;7.90;;;2.42;;
61702;SDS011;47622;47.726;3.298;2023-09-07T13:01:43;4.40;;;2.45;;
61702;SDS011;47622;47.726;3.298;2023-09-07T13:04:08;4.68;;;2.40;;
61702;SDS011;47622;47.726;3.298;2023-09-07T13:06:36;5.30;;;2.47;;
61702;SDS011;47622;47.726;3.298;2023-09-07T13:09:02;5.45;;;2.50;;
61702;SDS011;47622;47.726;3.298;2023-09-07T13:11:29;5.53;;;2.33;;
61702;SDS011;47622;47.726;3.298;2023-09-07T13:13:55;6.88;;;2.83;;
61702;SDS011;47622;47.726;3.298;2023-09-07T13:16:20;5.40;;;2.40;;
61702;SDS011;47622;47.726;3.298;2023-09-07T13:18:46;5.68;;;2.47;;
61702;SDS011;47622;47.726;3.298;2023-09-07T13:21:11;6.45;;;2.75;;
61702;SDS011;47622;47.726;3.298;2023-09-07T13:23:37;4.55;;;2.30;;
61702;SDS011;47622;47.726;3.298;2023-09-07T13:26:02;7.57;;;2.60;;
61702;SDS011;47622;47.726;3.298;2023-09-07T13:28:28;8.35;;;3.03;;
61702;SDS011;47622;47.726;3.298;2023-09-07T13:30:53;5.88;;;2.70;;
61702;SDS011;47622;47.726;3.298;2023-09-07T13:33:19;12.88;;;2.97;;
61702;SDS011;47622;47.726;3.298;2023-09-07T13:35:45;7.40;;;2.97;;
61702;SDS011;47622;47.726;3.298;2023-09-07T13:38:11;7.30;;;2.58;;
61702;SDS011;47622;47.726;3.298;2023-09-07T13:40:36;11.95;;;3.03;;
61702;SDS011;47622;47.726;3.298;2023-09-07T13:43:02;8.40;;;3.00;;
61702;SDS011;47622;47.726;3.298;2023-09-07T13:45:28;8.25;;;2.60;;
61702;SDS011;47622;47.726;3.298;2023-09-07T13:47:56;5.78;;;2.45;;
61702;SDS011;47622;47.726;3.298;2023-09-07T13:50:22;6.10;;;2.85;;
61702;SDS011;47622;47.726;3.298;2023-09-07T13:52:47;9.20;;;2.90;;
61702;SDS011;47622;47.726;3.298;2023-09-07T13:55:14;6.60;;;2.60;;
61702;SDS011;47622;47.726;3.298;2023-09-07T13:57:40;7.93;;;2.80;;
61702;SDS011;47622;47.726;3.298;2023-09-07T14:00:05;7.50;;;2.75;;
61702;SDS011;47622;47.726;3.298;2023-09-07T14:02:31;4.85;;;2.47;;
61702;SDS011;47622;47.726;3.298;2023-09-07T14:05:00;6.22;;;2.40;;
61702;SDS011;47622;47.726;3.298;2023-09-07T14:07:25;6.65;;;2.40;;
61702;SDS011;47622;47.726;3.298;2023-09-07T14:09:51;7.05;;;2.83;;
61702;SDS011;47622;47.726;3.298;2023-09-07T14:12:19;4.07;;;2.47;;
61702;SDS011;47622;47.726;3.298;2023-09-07T14:14:44;5.20;;;2.72;;
61702;SDS011;47622;47.726;3.298;2023-09-07T14:17:10;6.00;;;2.50;;
61702;SDS011;47622;47.726;3.298;2023-09-07T14:19:35;7.63;;;2.55;;
61702;SDS011;47622;47.726;3.298;2023-09-07T14:22:01;7.25;;;2.60;;
61702;SDS011;47622;47.726;3.298;2023-09-07T14:24:26;6.93;;;2.63;;
61702;SDS011;47622;47.726;3.298;2023-09-07T14:26:52;7.18;;;2.50;;
61702;SDS011;47622;47.726;3.298;2023-09-07T14:29:18;8.73;;;3.10;;
61702;SDS011;47622;47.726;3.298;2023-09-07T14:31:43;8.68;;;2.88;;
61702;SDS011;47622;47.726;3.298;2023-09-07T14:34:12;10.95;;;2.50;;
61702;SDS011;47622;47.726;3.298;2023-09-07T14:36:38;7.25;;;2.88;;
61702;SDS011;47622;47.726;3.298;2023-09-07T14:39:05;9.82;;;2.97;;
61702;SDS011;47622;47.726;3.298;2023-09-07T14:41:32;4.55;;;2.28;;
61702;SDS011;47622;47.726;3.298;2023-09-07T14:43:59;8.48;;;2.72;;
61702;SDS011;47622;47.726;3.298;2023-09-07T14:46:25;8.90;;;3.08;;
61702;SDS011;47622;47.726;3.298;2023-09-07T14:48:51;7.25;;;2.83;;
61702;SDS011;47622;47.726;3.298;2023-09-07T14:51:17;9.18;;;2.65;;
61702;SDS011;47622;47.726;3.298;2023-09-07T14:53:43;6.10;;;2.60;;
61702;SDS011;47622;47.726;3.298;2023-09-07T14:56:09;5.38;;;2.30;;
61702;SDS011;47622;47.726;3.298;2023-09-07T14:58:35;9.55;;;2.80;;
61702;SDS011;47622;47.726;3.298;2023-09-07T15:01:01;4.07;;;2.80;;
61702;SDS011;47622;47.726;3.298;2023-09-07T15:03:26;7.95;;;2.47;;
61702;SDS011;47622;47.726;3.298;2023-09-07T15:05:52;5.18;;;2.50;;
61702;SDS011;47622;47.726;3.298;2023-09-07T15:08:17;6.32;;;2.25;;
61702;SDS011;47622;47.726;3.298;2023-09-07T15:10:43;6.88;;;2.60;;
61702;SDS011;47622;47.726;3.298;2023-09-07T15:13:09;9.32;;;3.20;;
61702;SDS011;47622;47.726;3.298;2023-09-07T15:15:35;5.13;;;2.58;;
61702;SDS011;47622;47.726;3.298;2023-09-07T15:18:05;7.28;;;2.65;;
61702;SDS011;47622;47.726;3.298;2023-09-07T15:20:31;6.50;;;2.70;;